createdAt,value
2023-05-05T00:00:16.156Z,100369.00
2023-05-05T00:03:20.835Z,100364.03
2023-05-05T00:06:23.073Z,100357.81
2023-05-05T00:09:25.183Z,100356.88
2023-05-05T00:12:27.742Z,100354.22
2023-05-05T00:15:29.792Z,100356.88
2023-05-05T00:18:33.894Z,100351.25
2023-05-05T00:21:36.026Z,100351.09
2023-05-05T00:24:37.972Z,100337.84
2023-05-05T00:27:41.042Z,100340.62
2023-05-05T00:30:43.155Z,100337.00
2023-05-05T00:33:45.445Z,100352.16
2023-05-05T00:36:47.791Z,100345.06
2023-05-05T00:39:49.861Z,100347.03
2023-05-05T00:42:52.514Z,100348.87
2023-05-05T00:46:06.534Z,100342.06
2023-05-05T00:49:08.869Z,100343.25
2023-05-05T00:52:11.600Z,100331.69
2023-05-05T00:55:13.760Z,100338.91
2023-05-05T00:58:15.848Z,100336.13
2023-05-05T01:01:18.047Z,100340.78
2023-05-05T01:04:19.981Z,100338.28
2023-05-05T01:07:41.315Z,100342.63
2023-05-05T01:10:55.250Z,100336.06
2023-05-05T01:14:40.377Z,100332.03
2023-05-05T01:17:47.950Z,100325.00
2023-05-05T01:21:02.065Z,100330.44
2023-05-05T01:24:39.100Z,100329.22
2023-05-05T01:27:55.795Z,100325.19
2023-05-05T01:31:18.031Z,100332.06
2023-05-05T01:34:25.529Z,100329.44
2023-05-05T01:37:49.411Z,100336.34
2023-05-05T01:41:03.854Z,100335.72
2023-05-05T01:44:08.368Z,100328.44
2023-05-05T01:47:15.952Z,100328.25
2023-05-05T01:50:18.834Z,100329.25
2023-05-05T01:53:24.177Z,100324.84
2023-05-05T01:56:27.556Z,100326.53
2023-05-05T01:59:30.345Z,100318.78
2023-05-05T02:02:35.232Z,100323.97
2023-05-05T02:05:39.814Z,100329.25
2023-05-05T02:08:43.798Z,100326.84
2023-05-05T02:11:46.205Z,100323.56
2023-05-05T02:14:49.370Z,100328.94
2023-05-05T02:17:53.070Z,100330.03
2023-05-05T02:20:56.102Z,100326.59
2023-05-05T02:23:58.685Z,100321.19
2023-05-05T02:27:04.046Z,100319.25
2023-05-05T02:30:11.318Z,100323.41
2023-05-05T02:33:18.209Z,100328.09
2023-05-05T02:36:22.530Z,100334.25
2023-05-05T02:39:35.933Z,100316.75
2023-05-05T02:42:46.463Z,100316.75
2023-05-05T02:45:48.549Z,100305.69
2023-05-05T02:48:50.648Z,100303.12
2023-05-05T02:51:52.785Z,100299.56
2023-05-05T02:54:54.806Z,100304.81
2023-05-05T02:58:14.318Z,100297.13
2023-05-05T03:01:17.093Z,100300.50
2023-05-05T03:04:41.852Z,100302.34
2023-05-05T03:08:00.354Z,100299.06
2023-05-05T03:11:08.076Z,100306.22
2023-05-05T03:14:17.315Z,100302.78
2023-05-05T03:17:21.709Z,100300.31
2023-05-05T03:20:25.973Z,100303.72
2023-05-05T03:23:28.075Z,100307.41
2023-05-05T03:26:29.966Z,100309.44
2023-05-05T03:29:31.906Z,100304.97
2023-05-05T03:32:33.976Z,100305.88
2023-05-05T03:35:36.118Z,100302.69
2023-05-05T03:38:38.191Z,100309.72
2023-05-05T03:41:40.191Z,100309.72
2023-05-05T03:44:42.156Z,100307.09
2023-05-05T03:47:44.161Z,100307.09
2023-05-05T03:50:46.367Z,100300.91
2023-05-05T03:53:48.305Z,100305.16
2023-05-05T03:56:50.348Z,100301.84
2023-05-05T03:59:52.683Z,100298.91
2023-05-05T04:02:54.720Z,100307.50
2023-05-05T04:05:56.724Z,100307.91
2023-05-05T04:08:58.701Z,100306.81
2023-05-05T04:12:01.630Z,100309.31
2023-05-05T04:15:04.131Z,100311.50
2023-05-05T04:18:06.206Z,100309.78
2023-05-05T04:21:08.211Z,100315.22
2023-05-05T04:24:10.456Z,100314.00
2023-05-05T04:27:12.359Z,100310.47
2023-05-05T04:30:15.056Z,100310.56
2023-05-05T04:33:17.037Z,100308.41
2023-05-05T04:36:19.294Z,100305.78
2023-05-05T04:39:21.691Z,100302.28
2023-05-05T04:42:23.938Z,100317.03
2023-05-05T04:45:26.505Z,100312.91
2023-05-05T04:48:28.562Z,100301.69
2023-05-05T04:51:32.243Z,100315.78
2023-05-05T04:54:37.541Z,100316.28
2023-05-05T04:57:39.593Z,100317.12
2023-05-05T05:00:41.523Z,100319.78
2023-05-05T05:03:43.577Z,100317.66
2023-05-05T05:06:46.186Z,100318.75
2023-05-05T05:09:48.147Z,100315.88
2023-05-05T05:12:50.480Z,100314.50
2023-05-05T05:15:52.458Z,100308.81
2023-05-05T05:18:54.854Z,100312.44
2023-05-05T05:21:56.792Z,100314.28
2023-05-05T05:24:59.236Z,100317.66
2023-05-05T05:28:08.936Z,100317.72
2023-05-05T05:31:12.356Z,100323.62
2023-05-05T05:34:14.963Z,100318.94
2023-05-05T05:37:17.095Z,100324.44
2023-05-05T05:40:19.448Z,100328.63
2023-05-05T05:43:21.417Z,100317.47
2023-05-05T05:46:23.436Z,100332.19
2023-05-05T05:49:25.867Z,100331.28
2023-05-05T05:52:28.319Z,100335.22
2023-05-05T05:55:30.428Z,100335.59
2023-05-05T05:58:32.364Z,100332.47
2023-05-05T06:01:35.515Z,100334.63
2023-05-05T06:04:37.747Z,100340.59
2023-05-05T06:07:39.825Z,100337.59
2023-05-05T06:10:42.155Z,100333.62
2023-05-05T06:13:44.226Z,100342.19
2023-05-05T06:16:46.113Z,100338.03
2023-05-05T06:19:48.179Z,100334.53
2023-05-05T06:22:50.114Z,100336.59
2023-05-05T06:25:53.410Z,100334.03
2023-05-05T06:28:56.002Z,100317.16
2023-05-05T06:31:58.146Z,100330.78
2023-05-05T06:35:00.169Z,100324.44
2023-05-05T06:38:02.149Z,100333.19
2023-05-05T06:41:04.299Z,100331.91
2023-05-05T06:44:06.860Z,100337.94
2023-05-05T06:47:08.833Z,100340.59
2023-05-05T06:50:11.468Z,100338.00
2023-05-05T06:53:13.533Z,100343.53
2023-05-05T06:56:15.655Z,100340.03
2023-05-05T06:59:17.587Z,100346.22
2023-05-05T07:02:19.641Z,100342.97
2023-05-05T07:05:22.003Z,100344.38
2023-05-05T07:08:25.505Z,100337.53
2023-05-05T07:11:27.435Z,100335.75
2023-05-05T07:14:29.383Z,100341.50
2023-05-05T07:17:31.313Z,100335.22
2023-05-05T07:20:33.391Z,100335.84
2023-05-05T07:23:37.484Z,100341.38
2023-05-05T07:26:40.161Z,100337.19
2023-05-05T07:29:42.134Z,100336.81
2023-05-05T07:32:44.321Z,100335.63
2023-05-05T07:35:46.716Z,100336.75
2023-05-05T07:38:48.895Z,100327.91
2023-05-05T07:41:51.119Z,100337.06
2023-05-05T07:44:53.146Z,100319.56
2023-05-05T07:47:55.875Z,100329.56
2023-05-05T07:50:58.267Z,100328.66
2023-05-05T07:54:00.445Z,100322.59
2023-05-05T07:57:02.417Z,100316.81
2023-05-05T08:00:05.295Z,100325.84
2023-05-05T08:03:11.320Z,100312.31
2023-05-05T08:06:16.558Z,100309.88
2023-05-05T08:09:18.671Z,100309.69
2023-05-05T08:12:21.103Z,100317.56
2023-05-05T08:15:23.164Z,100313.03
2023-05-05T08:21:44.856Z,100303.97
2023-05-05T08:24:46.895Z,100305.81
2023-05-05T08:27:48.814Z,100305.72
2023-05-05T08:30:50.985Z,100309.03
2023-05-05T08:33:52.921Z,100312.31
2023-05-05T08:36:54.799Z,100304.41
2023-05-05T08:39:57.958Z,100301.97
2023-05-05T08:43:01.536Z,100306.09
2023-05-05T08:46:04.570Z,100312.25
2023-05-05T08:49:09.592Z,100299.69
2023-05-05T08:52:14.398Z,100307.22
2023-05-05T08:55:26.937Z,100311.66
2023-05-05T08:58:31.463Z,100303.84
2023-05-05T09:01:35.097Z,100299.41
2023-05-05T09:04:37.177Z,100298.34
2023-05-05T09:07:43.811Z,100300.53
2023-05-05T09:10:46.157Z,100306.03
2023-05-05T09:17:22.282Z,100291.28
2023-05-05T09:20:24.737Z,100299.41
2023-05-05T09:23:26.721Z,100293.84
2023-05-05T09:26:33.225Z,100285.03
2023-05-05T09:29:35.724Z,100288.25
2023-05-05T09:32:49.106Z,100292.78
2023-05-05T09:35:53.997Z,100285.34
2023-05-05T09:39:06.462Z,100255.53
2023-05-05T09:42:19.083Z,100282.47
2023-05-05T09:45:20.922Z,100276.06
2023-05-05T09:48:30.951Z,100271.25
2023-05-05T09:51:33.452Z,100272.31
2023-05-05T09:54:35.537Z,100270.25
2023-05-05T09:57:37.475Z,100275.69
2023-05-05T10:00:39.737Z,100275.09
2023-05-05T10:03:52.958Z,100264.94
2023-05-05T10:06:57.139Z,100270.06
2023-05-05T10:09:59.082Z,100266.69
2023-05-05T10:13:01.915Z,100267.84
2023-05-05T10:16:04.767Z,100264.44
2023-05-05T10:19:07.099Z,100259.75
2023-05-05T10:22:10.863Z,100259.31
2023-05-05T10:25:16.067Z,100251.63
2023-05-05T10:28:42.225Z,100250.19
2023-05-05T10:31:54.330Z,100252.16
2023-05-05T10:35:09.174Z,100243.16
2023-05-05T10:38:13.244Z,100246.19
2023-05-05T10:41:16.289Z,100247.84
2023-05-05T10:44:18.416Z,100236.34
2023-05-05T10:47:22.422Z,100226.44
2023-05-05T10:50:24.337Z,100225.66
2023-05-05T10:53:31.665Z,100217.72
2023-05-05T10:56:36.153Z,100213.25
2023-05-05T10:59:40.130Z,100215.19
2023-05-05T11:02:42.310Z,100215.44
2023-05-05T11:06:08.967Z,100204.81
2023-05-05T11:09:29.773Z,100210.22
2023-05-05T11:12:33.180Z,100201.94
2023-05-05T11:15:37.957Z,100189.63
2023-05-05T11:18:44.537Z,100199.13
2023-05-05T11:22:02.544Z,100184.69
2023-05-05T11:25:36.593Z,100194.00
2023-05-05T11:29:08.529Z,100188.03
2023-05-05T11:32:12.572Z,100179.09
2023-05-05T11:35:15.619Z,100184.66
2023-05-05T11:38:20.969Z,100185.97
2023-05-05T11:41:51.775Z,100179.31
2023-05-05T11:44:54.820Z,100169.19
2023-05-05T11:48:27.160Z,100165.03
2023-05-05T11:51:48.691Z,100168.22
2023-05-05T11:54:51.462Z,100171.47
2023-05-05T11:57:53.505Z,100165.00
2023-05-05T12:00:55.608Z,100150.75
2023-05-05T12:03:58.265Z,100160.78
2023-05-05T12:07:00.737Z,100155.75
2023-05-05T12:10:02.942Z,100154.09
2023-05-05T12:13:20.114Z,100161.59
2023-05-05T12:16:22.507Z,100158.97
2023-05-05T12:19:30.118Z,100145.53
2023-05-05T12:22:32.388Z,100150.91
2023-05-05T12:25:40.678Z,100148.16
2023-05-05T12:28:46.651Z,100140.66
2023-05-05T12:31:49.125Z,100134.84
2023-05-05T12:34:57.537Z,100147.38
2023-05-05T12:38:00.008Z,100134.66
2023-05-05T12:41:03.007Z,100138.28
2023-05-05T12:44:05.360Z,100129.53
2023-05-05T12:47:07.773Z,100126.72
2023-05-05T12:50:10.509Z,100137.62
2023-05-05T12:53:21.158Z,100131.69
2023-05-05T12:56:33.638Z,100125.88
2023-05-05T12:59:35.739Z,100114.50
2023-05-05T13:02:38.006Z,100111.78
2023-05-05T13:05:41.246Z,100111.03
2023-05-05T13:08:43.866Z,100105.94
2023-05-05T13:11:46.036Z,100095.59
2023-05-05T13:14:48.489Z,100100.63
2023-05-05T13:17:50.873Z,100098.28
2023-05-05T13:20:52.912Z,100091.37
2023-05-05T13:24:01.599Z,100084.16
2023-05-05T13:27:14.204Z,100079.53
2023-05-05T13:30:16.244Z,100076.28
2023-05-05T13:33:18.271Z,100074.66
2023-05-05T13:36:20.326Z,100064.69
2023-05-05T13:39:22.818Z,100067.69
2023-05-05T13:42:25.035Z,100057.91
2023-05-05T13:45:26.989Z,100056.12
2023-05-05T13:48:29.171Z,100049.97
2023-05-05T13:51:31.241Z,100053.66
2023-05-05T13:54:33.192Z,100050.37
2023-05-05T13:57:35.194Z,100039.19
2023-05-05T14:00:37.985Z,100041.25
2023-05-05T14:03:40.145Z,100043.03
2023-05-05T14:06:42.082Z,100041.34
2023-05-05T14:09:44.134Z,100041.56
2023-05-05T14:12:46.247Z,100039.44
2023-05-05T14:15:50.368Z,100036.13
2023-05-05T14:18:52.571Z,100030.19
2023-05-05T14:21:54.561Z,100030.22
2023-05-05T14:24:57.006Z,100030.34
2023-05-05T14:27:58.970Z,100015.19
2023-05-05T14:31:01.008Z,100019.91
2023-05-05T14:34:03.225Z,100015.94
2023-05-05T14:37:05.203Z,100015.72
2023-05-05T14:40:07.838Z,100013.84
2023-05-05T14:43:09.891Z,100010.13
2023-05-05T14:46:12.000Z,100004.53
2023-05-05T14:49:14.107Z,100003.41
2023-05-05T14:52:16.076Z,100009.28
2023-05-05T14:55:18.226Z,100014.28
2023-05-05T14:58:22.480Z,100010.78
2023-05-05T15:01:27.655Z,100009.69
2023-05-05T15:04:29.752Z,100013.37
2023-05-05T15:07:31.706Z,100005.78
2023-05-05T15:10:33.780Z,100007.44
2023-05-05T15:13:38.596Z,100006.06
2023-05-05T15:16:41.062Z,100000.00
2023-05-05T15:19:43.017Z,100007.41
2023-05-05T15:22:45.058Z,100001.00
2023-05-05T15:25:47.162Z,99997.31
2023-05-05T15:28:50.420Z,99996.66
2023-05-05T15:31:52.829Z,100000.69
2023-05-05T15:34:56.378Z,99997.38
2023-05-05T15:37:58.424Z,99984.44
2023-05-05T15:41:00.560Z,99991.56
2023-05-05T15:44:04.507Z,99985.84
2023-05-05T15:47:11.001Z,99979.81
2023-05-05T15:50:13.050Z,99975.50
2023-05-05T15:53:15.084Z,99979.50
2023-05-05T15:56:17.284Z,99972.88
2023-05-05T15:59:19.423Z,99972.94
2023-05-05T16:02:22.154Z,99967.50
2023-05-05T16:05:24.144Z,99965.47
2023-05-05T16:08:26.144Z,99959.53
2023-05-05T16:11:28.568Z,99961.41
2023-05-05T16:14:32.237Z,99963.03
2023-05-05T16:17:34.299Z,99958.47
2023-05-05T16:20:36.305Z,99956.13
2023-05-05T16:23:38.404Z,99956.91
2023-05-05T16:26:40.330Z,99953.50
2023-05-05T16:29:42.209Z,99958.19
2023-05-05T16:32:44.487Z,99957.56
2023-05-05T16:35:46.661Z,99960.94
2023-05-05T16:38:49.800Z,99957.69
2023-05-05T16:41:52.585Z,99958.84
2023-05-05T16:44:54.705Z,99956.75
2023-05-05T16:47:56.733Z,99960.94
2023-05-05T16:50:58.827Z,99957.50
2023-05-05T16:54:00.942Z,99957.25
2023-05-05T16:57:03.858Z,99959.44
2023-05-05T17:00:07.333Z,99954.91
2023-05-05T17:03:09.346Z,99949.03
2023-05-05T17:06:13.079Z,99966.75
2023-05-05T17:09:15.542Z,99954.31
2023-05-05T17:12:17.712Z,99950.66
2023-05-05T17:15:19.765Z,99958.25
2023-05-05T17:18:22.830Z,99951.50
2023-05-05T17:21:24.814Z,99952.72
2023-05-05T17:24:26.818Z,99953.88
2023-05-05T17:27:28.859Z,99952.75
2023-05-05T17:30:30.949Z,99957.66
2023-05-05T17:33:32.870Z,99953.78
2023-05-05T17:36:35.545Z,99958.31
2023-05-05T17:39:37.769Z,99958.00
2023-05-05T17:42:40.635Z,99962.84
2023-05-05T17:45:42.627Z,99959.16
2023-05-05T17:48:45.015Z,99962.00
2023-05-05T17:51:47.141Z,99963.34
2023-05-05T17:54:49.863Z,99957.28
2023-05-05T17:57:51.911Z,99962.97
2023-05-05T18:00:53.861Z,99962.87
2023-05-05T18:03:56.575Z,99967.06
2023-05-05T18:06:58.550Z,99965.47
2023-05-05T18:10:00.763Z,99966.31
2023-05-05T18:13:02.814Z,99967.41
2023-05-05T18:16:05.659Z,99969.22
2023-05-05T18:19:08.215Z,99969.69
2023-05-05T18:22:10.710Z,99962.91
2023-05-05T18:25:12.944Z,99961.50
2023-05-05T18:28:15.305Z,99969.09
2023-05-05T18:31:17.479Z,99970.41
2023-05-05T18:34:20.627Z,99978.09
2023-05-05T18:37:22.695Z,99977.19
2023-05-05T18:40:24.721Z,99973.28
2023-05-05T18:43:26.856Z,99986.78
2023-05-05T18:46:29.157Z,99980.81
2023-05-05T18:49:31.742Z,99976.75
2023-05-05T18:52:34.498Z,99984.94
2023-05-05T18:55:36.877Z,99991.47
2023-05-05T18:58:39.302Z,99987.19
2023-05-05T19:01:43.017Z,99992.75
2023-05-05T19:04:46.614Z,99986.34
2023-05-05T19:07:49.070Z,100001.22
2023-05-05T19:10:51.439Z,100004.53
2023-05-05T19:13:53.658Z,100004.84
2023-05-05T19:17:02.214Z,99998.06
2023-05-05T19:20:04.704Z,99995.56
2023-05-05T19:23:07.179Z,100000.81
2023-05-05T19:26:10.405Z,100005.44
2023-05-05T19:29:12.798Z,100007.72
2023-05-05T19:32:15.082Z,100006.87
2023-05-05T19:35:17.642Z,100006.59
2023-05-05T19:38:19.536Z,100011.56
2023-05-05T19:41:21.579Z,100008.88
2023-05-05T19:44:23.895Z,100005.50
2023-05-05T19:47:26.187Z,100010.84
2023-05-05T19:50:30.379Z,100006.44
2023-05-05T19:53:32.438Z,100009.13
2023-05-05T19:56:34.438Z,100003.34
2023-05-05T19:59:36.466Z,100004.88
2023-05-05T20:02:38.800Z,100009.94
2023-05-05T20:05:41.161Z,100006.37
2023-05-05T20:08:43.145Z,100008.06
2023-05-05T20:11:45.200Z,100008.69
2023-05-05T20:14:47.518Z,100012.44
2023-05-05T20:17:49.887Z,100007.81
2023-05-05T20:20:51.898Z,100002.47
2023-05-05T20:23:56.634Z,100003.28
2023-05-05T20:26:58.653Z,99999.25
2023-05-05T20:30:00.548Z,100006.97
2023-05-05T20:33:02.655Z,100002.28
2023-05-05T20:36:05.031Z,100000.50
2023-05-05T20:39:08.117Z,100002.41
2023-05-05T20:42:11.204Z,99993.44
2023-05-05T20:45:13.457Z,99993.06
2023-05-05T20:48:15.570Z,99999.41
2023-05-05T20:51:17.500Z,99988.75
2023-05-05T20:54:19.499Z,99997.25
2023-05-05T20:57:21.743Z,99989.50
2023-05-05T21:00:24.267Z,99990.53
2023-05-05T21:03:26.327Z,99986.00
2023-05-05T21:06:28.353Z,99983.19
2023-05-05T21:09:31.652Z,99986.25
2023-05-05T21:12:34.633Z,99980.72
2023-05-05T21:15:37.612Z,99973.19
2023-05-05T21:18:39.850Z,99979.47
2023-05-05T21:21:41.824Z,99973.69
2023-05-05T21:24:44.071Z,99971.53
2023-05-05T21:27:48.032Z,99968.88
2023-05-05T21:31:10.261Z,99972.63
2023-05-05T21:34:13.585Z,99966.50
2023-05-05T21:37:15.791Z,99969.53
2023-05-05T21:40:23.008Z,99967.34
2023-05-05T21:43:30.644Z,99966.03
2023-05-05T21:46:32.805Z,99973.91
2023-05-05T21:49:34.845Z,99975.97
2023-05-05T21:52:36.928Z,99980.81
2023-05-05T21:55:38.986Z,99974.19
2023-05-05T21:58:41.614Z,99976.09
2023-05-05T22:01:43.827Z,99972.34
2023-05-05T22:04:48.801Z,99973.59
2023-05-05T22:07:50.840Z,99977.47
2023-05-05T22:10:52.890Z,99978.53
2023-05-05T22:13:56.098Z,99973.81
2023-05-05T22:16:58.130Z,99983.25
2023-05-05T22:20:00.081Z,99984.97
2023-05-05T22:23:02.052Z,99985.91
2023-05-05T22:26:04.973Z,99988.22
2023-05-05T22:29:07.063Z,99982.88
2023-05-05T22:32:09.135Z,99982.00
2023-05-05T22:35:11.290Z,99977.81
2023-05-05T22:38:13.589Z,99984.44
2023-05-05T22:41:16.136Z,99983.84
2023-05-05T22:44:18.103Z,99985.75
2023-05-05T22:47:20.133Z,99985.28
2023-05-05T22:50:22.318Z,99988.41
2023-05-05T22:53:24.535Z,99975.00
2023-05-05T22:56:26.706Z,99976.19
2023-05-05T22:59:28.655Z,99984.41
2023-05-05T23:02:30.692Z,99988.25
2023-05-05T23:05:34.465Z,99985.59
2023-05-05T23:08:36.475Z,99978.16
2023-05-05T23:11:38.615Z,99981.91
2023-05-05T23:14:40.642Z,99987.41
2023-05-05T23:17:42.666Z,99980.06
2023-05-05T23:20:44.669Z,99969.34
2023-05-05T23:23:48.533Z,99974.97
2023-05-05T23:26:51.989Z,99978.72
2023-05-05T23:29:53.905Z,99969.81
2023-05-05T23:32:57.561Z,99970.13
2023-05-05T23:35:59.615Z,99976.66
2023-05-05T23:39:01.775Z,99971.88
2023-05-05T23:42:03.785Z,99972.63
2023-05-05T23:45:06.513Z,99965.03
2023-05-05T23:48:08.800Z,99968.75
2023-05-05T23:51:10.873Z,99962.81
2023-05-05T23:54:12.783Z,99952.66
2023-05-05T23:57:14.956Z,99952.28
